Orangeburg Municipal Airport
KOGB : rendu visible

Aérodrome :











RETROUVEZ-NOUS SUR...

 
LOGIN :

S'inscrire | Disclaimer

   EN    FR    IT 

 









Légende :    VFR   VFR Marginal   IFR   IFR Intensif   IFR Très Intensif
Visi : 
Plafond : 
>= 8 km
>= 3000ft
5 à 8 km
1000 à 3000 ft
1500m à 5 km
500 à 1000 ft
800 à 1500m
200 à 500 ft
< 800m
< 200 ft
Symboles :   Orages  Brouillard  Fortes neiges  Fortes précipitations  Vent > 20 kt






- Altitude de l'aérodrome : 195 ft


KOGB - Orangeburg Municipal

DERNIER METAR :
  • 150753Z AUTO 36007KT 7SM -RA OVC007 06/04 A3017 RMK AO2 SLP216 P0000 T00610044

METARs EXPIRÉS :
  • 150653Z AUTO 01006KT 9SM -RA OVC008 06/04 A3019 RMK AO2 RAB04 SLP223 P0000 T00610039
  • 150553Z AUTO 03007KT 10SM OVC008 06/04 A3020 RMK AO2 SLP227 T00610039 10061 20050 58016

TAF KOGB
Valide du 15 à 06h jusqu'au 16 à 06h UTC


150536Z 1506/1606 02007KT P6SM OVC008
TEMPO 1506/1508 5SM -RA BR OVC007
FM150800 01007KT 5SM -RA BR OVC007
FM152100 01010KT 5SM -RA BR SCT007 OVC012



MET'MAP, la Météo Aéronautique d'un coup d'oeil ! - Copyright ORBIFLY Décembre 2007 - Disclaimer

ORBIFLY MET'MAP TEAM :

Programmation & Développement : Alexandra Zaïnal
Conception & Développement : Baudouin d'Aumeries
Co-Programmation & Développement : Marc-Olivier Méhu
Soutien technique & logistique : Manuel Goepfert

Contact : metmap@orbifly.com




SOURCES & CREDITS :

   NOAA       Earth
Advisory